Latest Weather Observations for Gayndah

IDQ60801

Issued at 3:32 pm EST Tuesday 9 February 2016 (issued every 30 minutes, with the page automatically refreshed every 10 minutes)

About weather observations | Map of weather stations | Latest weather observations for QLD | Other Formats
Station Details ID: 039066 Name: GAYNDAH AIRPORT Lat: -25.62 Lon: 151.62 Height: 110.9 m
Data from the previous 72 hours. | See also: Recent months at Gayndah
Date/Time
EST
Temp
°C
App
Temp
°C
Dew
Point
Rel
Hum
%
Delta-T
°C
Wind Press
QNH
hPa
Press
MSL
hPa
Rain
since 9 am
mm
Dir
 
Spd
km/h
Gust
km/h
Spd
kts
Gust
kts
09/03:30pm 30.7 29.8 15.9 40 9.2 E 15 26 8 14 1011.7 1011.1 0.0
09/03:00pm 29.5 27.7 16.0 44 8.4 ESE 20 32 11 17 1011.9 1011.3 0.0
09/02:30pm 29.6 27.5 16.1 44 8.4 ENE 22 30 12 16 1012.1 1011.5 0.0
09/02:00pm 30.0 28.3 17.1 46 8.2 E 22 32 12 17 1012.4 1011.8 0.0
09/01:30pm 29.8 28.5 17.3 47 7.9 ESE 20 32 11 17 1012.8 1012.2 0.0
09/01:00pm 29.2 29.6 16.4 46 8.0 SE 9 20 5 11 1013.2 1012.6 0.0
09/12:30pm 28.7 28.1 15.6 45 8.1 E 13 24 7 13 1013.5 1012.9 0.0
09/12:00pm 29.1 28.6 17.0 48 7.6 E 15 22 8 12 1013.8 1013.2 0.0
09/11:30am 28.9 28.2 17.4 49 7.3 ESE 17 28 9 15 1014.0 1013.4 0.0
09/11:00am 27.6 27.6 17.2 53 6.5 SE 13 22 7 12 1014.4 1013.7 0.0
09/10:30am 26.9 25.4 16.2 52 6.6 SE 19 26 10 14 1014.6 1013.9 0.0
09/10:00am 26.7 26.2 16.9 55 6.1 SE 15 22 8 12 1014.9 1014.2 0.0
09/09:30am 27.1 26.0 17.3 55 6.2 E 19 28 10 15 1015.1 1014.4 0.0
09/09:00am 26.4 24.7 17.2 57 5.8 E 22 32 12 17 1015.0 1014.3 0.0
09/08:30am 25.9 25.0 17.8 61 5.1 ESE 19 28 10 15 1015.0 1014.3 0.0
09/08:00am 24.5 23.5 16.7 61 4.8 ESE 17 26 9 14 1015.0 1014.3 0.0
09/07:30am 23.4 24.0 16.9 67 4.0 SE 9 13 5 7 1015.0 1014.3 0.0
09/07:00am 22.7 24.8 16.3 67 3.9 CALM 0 4 0 2 1014.8 1014.1 0.0
09/06:30am 20.8 23.2 17.0 79 2.3 CALM 0 0 0 0 1014.5 1013.8 0.0
09/06:00am 19.7 21.9 16.5 82 1.9 CALM 0 0 0 0 1014.1 1013.5 0.0
09/05:30am 19.2 21.2 16.1 82 1.9 CALM 0 2 0 1 1013.8 1013.2 0.0
09/05:00am 20.2 21.8 16.8 81 2.1 E 4 9 2 5 1013.5 1012.9 0.0
09/04:30am 19.6 21.9 16.8 84 1.7 CALM 0 4 0 2 1013.3 1012.7 0.0
09/04:00am 20.3 23.0 17.7 85 1.6 CALM 0 0 0 0 1013.1 1012.5 0.0
09/03:30am 20.0 22.4 18.0 88 1.2 WSW 2 4 1 2 1013.0 1012.4 0.0
09/03:00am 19.8 21.8 17.9 89 1.2 S 4 6 2 3 1013.1 1012.5 0.0
09/02:30am 19.9 22.6 17.7 87 1.4 CALM 0 0 0 0 1013.3 1012.7 0.0
09/02:00am 19.9 22.5 17.5 86 1.5 CALM 0 2 0 1 1013.4 1012.8 0.0
09/01:30am 19.9 22.4 17.3 85 1.6 CALM 0 0 0 0 1013.5 1012.9 0.0
09/01:00am 20.3 22.8 17.3 83 1.8 CALM 0 0 0 0 1013.7 1013.1 0.0
09/12:30am 21.0 23.6 17.4 80 2.2 CALM 0 0 0 0 1013.8 1013.2 0.0
09/12:00am 21.8 23.7 17.6 77 2.6 E 4 6 2 3 1014.1 1013.5 0.0
 
Date/Time
EST
Temp
°C
App
Temp
°C
Dew
Point
Rel
Hum
%
Delta-T
°C
Wind Press
QNH
hPa
Press
MSL
hPa
Rain
since 9 am
mm
Dir
 
Spd
km/h
Gust
km/h
Spd
kts
Gust
kts
08/11:30pm 22.2 23.7 17.6 75 2.9 E 6 7 3 4 1014.4 1013.7 0.0
08/11:00pm 22.8 23.7 17.5 72 3.3 E 9 11 5 6 1014.7 1014.0 0.0
08/10:30pm 23.3 23.8 17.5 70 3.6 E 11 15 6 8 1014.7 1014.0 0.0
08/10:00pm 23.9 24.5 17.6 68 3.9 E 11 17 6 9 1014.7 1014.0 0.0
08/09:30pm 24.6 24.4 17.6 65 4.4 ESE 15 22 8 12 1014.4 1013.7 0.0
08/09:00pm 24.8 25.1 18.0 66 4.3 E 13 17 7 9 1014.3 1013.6 0.0
08/08:30pm 25.4 26.4 17.8 62 4.8 E 9 15 5 8 1013.9 1013.3 0.0
08/08:00pm 25.8 25.7 16.9 58 5.5 E 13 17 7 9 1013.6 1013.0 0.0
08/07:30pm 26.5 26.8 16.1 52 6.4 E 9 15 5 8 1012.9 1012.3 0.0
08/07:00pm 27.1 27.0 16.1 51 6.8 E 11 15 6 8 1012.6 1012.0 0.0
08/06:30pm 28.0 27.0 15.6 46 7.6 E 15 24 8 13 1012.2 1011.6 0.0
08/06:00pm 28.6 26.9 15.8 45 7.9 E 19 24 10 13 1011.6 1011.0 0.0
08/05:30pm 28.9 28.1 16.1 46 8.0 E 15 20 8 11 1011.2 1010.6 0.0
08/05:00pm 30.0 29.8 16.8 45 8.3 E 13 24 7 13 1010.7 1010.1 0.0
08/04:30pm 30.9 31.8 17.6 45 8.5 E 9 15 5 8 1010.8 1010.2 0.0
08/04:00pm 30.6 29.8 16.2 41 9.0 E 15 22 8 12 1010.8 1010.2 0.0
08/03:30pm 29.4 28.9 15.9 44 8.4 ESE 13 20 7 11 1011.0 1010.4 0.0
08/03:00pm 30.4 31.1 17.1 44 8.4 ESE 9 17 5 9 1011.4 1010.8 0.0
08/02:30pm 30.6 30.0 16.6 43 8.8 ENE 15 22 8 12 1011.7 1011.1 0.0
08/02:00pm 30.9 31.5 17.6 45 8.5 E 11 22 6 12 1012.1 1011.5 0.0
08/01:30pm 30.6 31.6 17.7 46 8.3 ESE 9 17 5 9 1012.5 1011.9 0.0
08/01:00pm 28.8 28.7 16.0 45 7.9 ESE 11 17 6 9 1012.9 1012.3 0.0
08/12:30pm 29.0 28.7 16.5 46 7.8 E 13 20 7 11 1013.3 1012.7 0.0
08/12:00pm 28.7 28.3 16.3 47 7.7 ESE 13 20 7 11 1013.5 1012.9 0.0
08/11:30am 28.7 28.3 16.3 47 7.7 ESE 13 22 7 12 1013.8 1013.2 0.0
08/11:00am 28.4 27.9 17.0 50 7.2 ENE 15 19 8 10 1014.0 1013.4 0.0
08/10:30am 28.1 27.5 16.7 50 7.1 ESE 15 24 8 13 1014.5 1013.8 0.0
08/10:00am 27.7 26.9 16.0 49 7.2 ESE 15 24 8 13 1014.7 1014.0 0.0
08/09:30am 26.7 25.6 16.3 53 6.4 ESE 17 28 9 15 1014.8 1014.1 0.0
08/09:00am 25.9 24.9 16.7 57 5.7 ESE 17 32 9 17 1015.0 1014.3 0.2
08/08:30am 25.1 24.4 16.3 58 5.4 SE 15 24 8 13 1015.2 1014.5 0.2
08/08:00am 24.0 23.7 16.5 63 4.6 SE 13 19 7 10 1015.2 1014.5 0.2
08/07:30am 23.6 24.3 17.1 67 4.0 SE 9 13 5 7 1015.2 1014.5 0.2
08/07:00am 22.6 24.1 17.5 73 3.2 SSE 6 11 3 6 1015.1 1014.4 0.2
08/06:30am 21.6 24.3 17.8 79 2.4 CALM 0 6 0 3 1014.8 1014.1 0.2
08/06:00am 19.8 22.1 17.8 88 1.2 SSW 2 2 1 1 1014.6 1013.9 0.2
08/05:30am 19.6 22.2 17.4 87 1.3 CALM 0 0 0 0 1014.1 1013.5 0.2
08/05:00am 20.1 22.3 17.5 85 1.6 S 2 4 1 2 1013.8 1013.2 0.2
08/04:30am 20.1 21.9 17.5 85 1.6 SSW 4 6 2 3 1013.5 1012.9 0.2
08/04:00am 21.2 23.8 17.4 79 2.3 CALM 0 0 0 0 1013.4 1012.8 0.2
08/03:30am 21.2 22.6 17.4 79 2.3 SE 6 7 3 4 1013.3 1012.7 0.2
08/03:00am 21.4 22.9 17.6 79 2.4 SSE 6 9 3 5 1013.3 1012.7 0.2
08/02:30am 21.5 23.0 17.5 78 2.5 SE 6 9 3 5 1013.5 1012.9 0.2
08/02:00am 21.6 23.0 17.4 77 2.6 SSE 6 7 3 4 1013.7 1013.1 0.2
08/01:30am 21.8 23.6 17.4 76 2.7 ESE 4 6 2 3 1013.8 1013.2 0.2
08/01:00am 21.8 24.1 17.6 77 2.6 ENE 2 6 1 3 1014.1 1013.5 0.2
08/12:30am 22.6 23.7 17.1 71 3.4 ESE 7 9 4 5 1014.3 1013.6 0.2
08/12:00am 23.0 24.3 17.2 70 3.6 ESE 6 9 3 5 1014.5 1013.8 0.2
 
Date/Time
EST
Temp
°C
App
Temp
°C
Dew
Point
Rel
Hum
%
Delta-T
°C
Wind Press
QNH
hPa
Press
MSL
hPa
Rain
since 9 am
mm
Dir
 
Spd
km/h
Gust
km/h
Spd
kts
Gust
kts
07/11:30pm 23.4 24.5 17.2 68 3.8 SE 7 13 4 7 1014.9 1014.2 0.2
07/11:00pm 23.4 25.2 18.7 75 3.0 ENE 7 11 4 6 1014.7 1014.0 0.2
07/10:30pm 24.0 25.4 18.6 72 3.4 E 9 13 5 7 1014.7 1014.0 0.2
07/10:00pm 24.1 25.4 19.2 74 3.1 ENE 11 15 6 8 1014.5 1013.8 0.2
07/09:30pm 24.5 25.9 19.6 74 3.2 ENE 11 13 6 7 1014.4 1013.7 0.2
07/09:00pm 24.7 26.6 19.8 74 3.2 E 9 15 5 8 1014.1 1013.5 0.2
07/08:30pm 24.8 26.3 19.8 74 3.2 E 11 15 6 8 1013.6 1013.0 0.2
07/08:00pm 24.9 26.4 19.7 73 3.4 E 11 15 6 8 1013.2 1012.6 0.2
07/07:30pm 25.4 25.7 19.5 70 3.8 E 17 24 9 13 1012.9 1012.3 0.2
07/07:00pm 25.5 27.6 20.1 72 3.5 ENE 9 11 5 6 1012.5 1011.9 0.2
07/06:30pm 25.9 27.1 19.8 69 4.0 ENE 13 17 7 9 1012.0 1011.4 0.2
07/06:00pm 26.7 26.6 19.6 65 4.6 ENE 19 24 10 13 1011.5 1010.9 0.2
07/05:30pm 27.5 26.6 19.8 63 5.0 E 24 32 13 17 1011.0 1010.4 0.2
07/05:00pm 28.1 29.4 20.1 62 5.3 ESE 13 20 7 11 1010.6 1010.0 0.2
07/04:30pm 28.0 29.2 19.8 61 5.4 ENE 13 17 7 9 1010.5 1009.9 0.2
07/04:00pm 27.7 29.7 20.8 66 4.6 E 11 15 6 8 1010.4 1009.8 0.2
07/03:30pm 27.2 26.5 19.5 62 5.0 E 22 33 12 18 1010.3 1009.7 0.2
07/03:00pm 28.2 28.9 19.7 60 5.6 E 15 22 8 12 1010.3 1009.7 0.2
07/02:30pm 27.9 28.6 21.2 67 4.5 E 19 26 10 14 1010.3 1009.7 0.2
07/02:00pm 29.5 30.7 19.8 56 6.4 SSE 13 20 7 11 1010.6 1010.0 0.0
07/01:30pm 29.3 30.4 19.6 56 6.4 SE 13 20 7 11 1011.0 1010.4 0.0
07/01:00pm 29.4 30.4 20.3 58 6.0 E 15 26 8 14 1011.3 1010.7 0.0
07/12:30pm 28.8 28.8 19.7 58 6.0 ESE 19 28 10 15 1011.6 1011.0 0.0
07/12:00pm 29.8 29.8 20.1 56 6.4 E 20 32 11 17 1011.8 1011.2 0.0
07/11:30am 29.6 30.2 20.2 57 6.2 ESE 17 26 9 14 1012.0 1011.4 0.0
07/11:00am 28.7 28.5 19.3 56 6.1 ESE 19 30 10 16 1012.0 1011.4 0.0
07/10:30am 28.1 27.9 19.3 58 5.7 ESE 19 30 10 16 1012.2 1011.6 0.0
07/10:00am 27.8 28.9 20.4 64 4.9 ESE 15 24 8 13 1012.2 1011.6 0.0
07/09:30am 27.2 27.8 19.5 62 5.0 ESE 15 22 8 12 1012.1 1011.5 0.0
07/09:00am 27.0 27.0 20.1 66 4.5 ESE 20 30 11 16 1012.2 1011.6 0.4
07/08:30am 26.1 26.4 19.5 67 4.3 E 17 28 9 15 1012.0 1011.4 0.4
07/08:00am 25.0 25.6 19.4 71 3.6 SE 15 20 8 11 1012.1 1011.5 0.4
07/07:30am 24.2 25.9 19.3 74 3.1 SE 9 15 5 8 1012.1 1011.5 0.4
07/07:00am 23.6 26.0 19.7 79 2.5 SE 6 13 3 7 1012.0 1011.4 0.4
07/06:30am 23.3 25.6 19.5 79 2.4 SSE 6 9 3 5 1011.8 1011.2 0.4
07/06:00am 23.0 25.4 19.6 81 2.2 S 6 7 3 4 1011.4 1010.8 0.4
07/05:30am 23.1 25.4 19.5 80 2.3 SSE 6 7 3 4 1011.1 1010.5 0.4
07/05:00am 23.1 25.5 19.7 81 2.2 SSE 6 9 3 5 1010.7 1010.1 0.4
07/04:30am 23.0 25.9 19.8 82 2.1 SE 4 11 2 6 1010.5 1009.9 0.4
07/04:00am 22.9 25.9 20.1 84 1.8 ESE 4 6 2 3 1010.2 1009.5 0.4
07/03:30am 22.8 25.9 20.3 86 1.6 E 4 6 2 3 1010.0 1009.3 0.4
07/03:00am 22.8 25.4 20.1 85 1.7 ESE 6 7 3 4 1009.9 1009.2 0.4
07/02:30am 22.8 25.6 20.5 87 1.5 SSE 6 9 3 5 1010.0 1009.3 0.4
07/02:00am 22.4 26.7 21.2 93 0.8 CALM 0 4 0 2 1010.1 1009.4 0.4
07/01:30am 22.3 26.3 21.3 94 0.7 SSW 2 2 1 1 1010.3 1009.7 0.4
07/01:00am 22.1 25.2 21.1 94 0.7 SW 6 7 3 4 1010.9 1010.3 0.4
07/12:30am 22.3 26.7 21.3 94 0.7 CALM 0 0 0 0 1011.1 1010.5 0.4
07/12:00am 22.3 26.8 21.5 95 0.5 CALM 0 0 0 0 1011.4 1010.8 0.4
 
Date/Time
EST
Temp
°C
App
Temp
°C
Dew
Point
Rel
Hum
%
Delta-T
°C
Wind Press
QNH
hPa
Press
MSL
hPa
Rain
since 9 am
mm
Dir
 
Spd
km/h
Gust
km/h
Spd
kts
Gust
kts
06/11:30pm 22.2 26.5 21.2 94 0.7 CALM 0 0 0 0 1011.7 1011.1 0.4
06/11:00pm 22.1 26.5 21.3 95 0.5 CALM 0 2 0 1 1011.9 1011.3 0.4
06/10:30pm 22.1 26.0 21.1 94 0.7 WSW 2 4 1 2 1012.0 1011.4 0.4
06/10:00pm 22.1 25.6 21.1 94 0.7 WSW 4 6 2 3 1012.2 1011.6 0.4
06/09:30pm 22.2 25.3 21.0 93 0.8 N 6 7 3 4 1012.0 1011.4 0.4
06/09:00pm 22.1 25.5 20.9 93 0.8 N 4 6 2 3 1011.7 1011.1 0.2
06/08:30pm 22.3 25.4 21.1 93 0.8 N 6 7 3 4 1011.5 1010.9 0.2
06/08:00pm 22.6 26.5 21.1 91 1.0 N 2 6 1 3 1011.0 1010.4 0.0
06/07:30pm 22.8 26.1 20.7 88 1.4 ENE 4 6 2 3 1010.8 1010.2 0.0
06/07:00pm 23.0 25.6 20.5 86 1.6 ENE 7 13 4 7 1010.3 1009.7 0.0
06/06:30pm 22.9 24.8 20.6 87 1.5 E 11 17 6 9 1009.8 1009.1 0.0
06/06:00pm 23.0 25.2 20.5 86 1.6 E 9 20 5 11 1009.4 1008.7 0.0
06/05:30pm 22.6 24.2 19.9 85 1.7 E 11 17 6 9 1008.6 1007.9 0.0
06/05:08pm 23.3 23.0 19.2 78 2.6 ENE 19 50 10 27 1008.6 1007.9 0.0
06/05:07pm 24.0 24.9 20.1 79 2.5 ENE 15 41 8 22 1008.5 1007.8 0.0
06/05:00pm 24.4 27.6 21.3 83 2.1 NE 6 9 3 5 1008.1 1007.4 0.0
06/04:30pm 24.0 25.4 20.3 80 2.4 ENE 13 17 7 9 1008.0 1007.3 0.0
06/04:00pm 24.9 25.7 20.6 77 2.8 E 17 28 9 15 1007.9 1007.2 0.0

Other Formats:

Comma delimited format used in spreadsheet applications
http://www.bom.gov.au/fwo/IDQ60801/IDQ60801.95543.axf

JavaScript Object Notation format (JSON) in row-major order
http://www.bom.gov.au/fwo/IDQ60801/IDQ60801.95543.json